createdAt,value
2017-08-05T00:00:51.962Z,93.70
2017-08-05T00:03:18.436Z,93.90
2017-08-05T00:05:44.863Z,94.50
2017-08-05T00:08:16.085Z,94.70
2017-08-05T00:10:42.587Z,94.90
2017-08-05T00:13:09.029Z,94.70
2017-08-05T00:15:35.464Z,95.00
2017-08-05T00:18:02.627Z,95.00
2017-08-05T00:20:29.131Z,94.90
2017-08-05T00:22:55.640Z,94.80
2017-08-05T00:25:22.855Z,94.80
2017-08-05T00:27:49.277Z,94.80
2017-08-05T00:30:15.744Z,95.10
2017-08-05T00:32:42.195Z,95.10
2017-08-05T00:35:09.394Z,95.60
2017-08-05T00:37:35.812Z,95.60
2017-08-05T00:40:04.339Z,95.50
2017-08-05T00:42:30.816Z,95.50
2017-08-05T00:44:58.053Z,95.60
2017-08-05T00:47:24.464Z,95.60
2017-08-05T00:49:50.888Z,95.90
2017-08-05T00:52:18.109Z,96.20
2017-08-05T00:54:44.543Z,96.20
2017-08-05T00:57:10.968Z,96.50
2017-08-05T00:59:37.436Z,96.70
2017-08-05T01:02:03.867Z,96.80
2017-08-05T01:04:30.256Z,96.70
2017-08-05T01:06:56.675Z,96.90
2017-08-05T01:09:24.915Z,97.10
2017-08-05T01:11:52.064Z,97.30
2017-08-05T01:14:18.476Z,97.20
2017-08-05T01:16:45.600Z,97.40
2017-08-05T01:19:12.766Z,97.20
2017-08-05T01:21:39.223Z,97.10
2017-08-05T01:24:05.606Z,97.10
2017-08-05T01:26:32.028Z,97.20
2017-08-05T01:28:59.440Z,97.00
2017-08-05T01:31:25.840Z,96.80
2017-08-05T01:33:53.211Z,96.70
2017-08-05T01:36:19.651Z,96.70
2017-08-05T01:38:46.084Z,96.40
2017-08-05T01:41:12.520Z,96.50
2017-08-05T01:43:38.994Z,96.80
2017-08-05T01:46:05.416Z,96.70
2017-08-05T01:48:31.852Z,97.10
2017-08-05T01:50:58.311Z,96.90
2017-08-05T01:53:24.807Z,96.80
2017-08-05T01:55:51.253Z,96.90
2017-08-05T01:58:17.663Z,96.90
2017-08-05T02:00:44.833Z,97.00
2017-08-05T02:03:11.293Z,97.00
2017-08-05T02:05:37.756Z,96.80
2017-08-05T02:08:04.215Z,96.70
2017-08-05T02:10:30.636Z,97.30
2017-08-05T02:12:57.069Z,97.40
2017-08-05T02:15:23.468Z,97.30
2017-08-05T02:17:49.910Z,97.10
2017-08-05T02:20:16.343Z,97.40
2017-08-05T02:22:42.791Z,97.40
2017-08-05T02:25:09.297Z,97.30
2017-08-05T02:27:35.672Z,97.40
2017-08-05T02:30:02.899Z,97.00
2017-08-05T02:32:30.067Z,97.30
2017-08-05T02:34:56.504Z,97.20
2017-08-05T02:37:24.029Z,97.40
2017-08-05T02:39:50.473Z,97.40
2017-08-05T02:42:16.923Z,97.10
2017-08-05T02:44:43.369Z,97.00
2017-08-05T02:47:10.579Z,97.00
2017-08-05T02:49:38.020Z,97.00
2017-08-05T02:52:04.424Z,97.10
2017-08-05T02:54:30.887Z,97.00
2017-08-05T02:56:57.334Z,97.10
2017-08-05T02:59:23.736Z,96.80
2017-08-05T03:01:50.156Z,96.60
2017-08-05T03:04:16.589Z,96.80
2017-08-05T03:06:43.019Z,97.40
2017-08-05T03:09:09.467Z,97.20
2017-08-05T03:11:36.628Z,97.20
2017-08-05T03:14:03.007Z,97.00
2017-08-05T03:16:29.381Z,97.10
2017-08-05T03:18:55.771Z,97.20
2017-08-05T03:21:22.175Z,97.70
2017-08-05T03:23:49.362Z,97.70
2017-08-05T03:26:15.757Z,97.60
2017-08-05T03:28:42.154Z,97.50
2017-08-05T03:31:09.325Z,97.70
2017-08-05T03:33:35.727Z,97.70
2017-08-05T03:36:02.126Z,98.10
2017-08-05T03:38:29.251Z,98.10
2017-08-05T03:40:55.660Z,98.00
2017-08-05T03:43:22.772Z,98.50
2017-08-05T03:45:49.171Z,98.50
2017-08-05T03:48:16.631Z,98.50
2017-08-05T03:50:43.090Z,98.30
2017-08-05T03:53:10.215Z,98.20
2017-08-05T03:55:36.643Z,98.20
2017-08-05T03:58:03.035Z,98.20
2017-08-05T04:00:29.424Z,98.30
2017-08-05T04:02:55.871Z,98.00
2017-08-05T04:05:22.248Z,98.20
2017-08-05T04:07:48.676Z,98.60
2017-08-05T04:10:15.079Z,98.50
2017-08-05T04:12:41.519Z,98.30
2017-08-05T04:15:08.712Z,98.10
2017-08-05T04:17:35.192Z,98.00
2017-08-05T04:20:11.699Z,98.50
2017-08-05T04:22:38.119Z,98.40
2017-08-05T04:25:04.548Z,98.30
2017-08-05T04:27:30.963Z,98.30
2017-08-05T04:29:57.398Z,98.20
2017-08-05T04:32:23.772Z,97.90
2017-08-05T04:34:50.220Z,97.70
2017-08-05T04:37:17.695Z,97.90
2017-08-05T04:39:44.834Z,98.00
2017-08-05T04:42:11.988Z,97.60
2017-08-05T04:44:38.401Z,97.60
2017-08-05T04:47:04.778Z,97.70
2017-08-05T04:49:31.165Z,97.30
2017-08-05T04:51:58.381Z,97.60
2017-08-05T04:54:24.751Z,97.60
2017-08-05T04:56:52.245Z,98.30
2017-08-05T04:59:18.631Z,97.80
2017-08-05T05:01:46.144Z,98.30
2017-08-05T05:04:12.614Z,98.20
2017-08-05T05:06:38.999Z,98.10
2017-08-05T05:09:06.100Z,98.00
2017-08-05T05:11:32.533Z,97.90
2017-08-05T05:13:58.944Z,98.00
2017-08-05T05:16:25.344Z,97.60
2017-08-05T05:18:51.782Z,97.30
2017-08-05T05:21:18.264Z,97.30
2017-08-05T05:23:44.646Z,97.10
2017-08-05T05:26:11.080Z,96.50
2017-08-05T05:28:37.498Z,96.60
2017-08-05T05:31:03.842Z,96.30
2017-08-05T05:33:30.235Z,96.40
2017-08-05T05:35:56.652Z,96.00
2017-08-05T05:38:23.470Z,96.10
2017-08-05T05:40:49.872Z,96.40
2017-08-05T05:43:16.244Z,96.20
2017-08-05T05:45:42.667Z,95.70
2017-08-05T05:48:09.059Z,96.00
2017-08-05T05:50:35.431Z,95.80
2017-08-05T05:53:02.659Z,94.70
2017-08-05T05:55:29.084Z,94.60
2017-08-05T05:57:55.495Z,94.90
2017-08-05T06:00:21.861Z,95.20
2017-08-05T06:02:48.307Z,92.70
2017-08-05T06:05:15.459Z,93.70
2017-08-05T06:07:41.856Z,93.70
2017-08-05T06:10:08.288Z,93.10
2017-08-05T06:12:34.698Z,93.60
2017-08-05T06:15:01.827Z,93.50
2017-08-05T06:17:28.379Z,93.50
2017-08-05T06:19:54.871Z,93.80
2017-08-05T06:22:22.000Z,93.50
2017-08-05T06:24:48.399Z,93.00
2017-08-05T06:27:14.789Z,92.50
2017-08-05T06:29:41.238Z,93.00
2017-08-05T06:32:07.644Z,92.90
2017-08-05T06:34:34.037Z,92.60
2017-08-05T06:37:00.555Z,92.70
2017-08-05T06:39:26.973Z,91.20
2017-08-05T06:41:53.427Z,90.20
2017-08-05T06:44:19.846Z,90.40
2017-08-05T06:46:46.196Z,89.40
2017-08-05T06:49:12.623Z,91.00
2017-08-05T06:51:39.003Z,88.20
2017-08-05T06:54:07.267Z,89.90
2017-08-05T06:56:33.679Z,89.80
2017-08-05T06:59:00.060Z,89.00
2017-08-05T07:01:26.470Z,90.20
2017-08-05T07:03:52.883Z,89.70
2017-08-05T07:06:19.340Z,91.10
2017-08-05T07:08:45.741Z,90.30
2017-08-05T07:11:12.168Z,90.80
2017-08-05T07:13:38.592Z,90.80
2017-08-05T07:16:04.979Z,89.70
2017-08-05T07:18:31.407Z,87.00
2017-08-05T07:20:57.851Z,85.00
2017-08-05T07:23:24.999Z,86.70
2017-08-05T07:25:52.415Z,86.00
2017-08-05T07:28:18.819Z,87.40
2017-08-05T07:30:45.186Z,85.90
2017-08-05T07:33:11.591Z,87.70
2017-08-05T07:35:38.753Z,85.60
2017-08-05T07:38:05.155Z,85.50
2017-08-05T07:40:31.528Z,83.60
2017-08-05T07:42:57.924Z,86.40
2017-08-05T07:45:24.393Z,80.90
2017-08-05T07:47:50.779Z,84.50
2017-08-05T07:50:17.231Z,82.90
2017-08-05T07:52:43.667Z,83.20
2017-08-05T07:55:10.061Z,80.70
2017-08-05T07:57:37.195Z,86.30
2017-08-05T08:00:03.606Z,86.30
2017-08-05T08:02:30.023Z,82.80
2017-08-05T08:04:57.227Z,79.30
2017-08-05T08:07:23.638Z,79.30
2017-08-05T08:09:51.052Z,78.20
2017-08-05T08:12:17.495Z,78.60
2017-08-05T08:14:43.870Z,78.50
2017-08-05T08:17:10.275Z,74.00
2017-08-05T08:19:37.395Z,72.80
2017-08-05T08:22:04.820Z,72.40
2017-08-05T08:24:31.241Z,73.20
2017-08-05T08:26:58.377Z,75.40
2017-08-05T08:29:24.761Z,75.40
2017-08-05T08:31:51.160Z,76.80
2017-08-05T08:34:17.547Z,71.30
2017-08-05T08:36:43.959Z,69.90
2017-08-05T08:39:10.387Z,71.20
2017-08-05T08:41:37.559Z,76.70
2017-08-05T08:44:04.653Z,70.80
2017-08-05T08:46:31.040Z,70.90
2017-08-05T08:48:57.440Z,67.90
2017-08-05T08:51:23.835Z,71.10
2017-08-05T08:53:50.252Z,67.40
2017-08-05T08:56:16.635Z,63.10
2017-08-05T08:58:43.087Z,63.00
2017-08-05T09:01:09.481Z,61.70
2017-08-05T09:03:35.899Z,58.70
2017-08-05T09:06:02.309Z,56.20
2017-08-05T09:08:29.711Z,53.40
2017-08-05T09:10:56.168Z,51.00
2017-08-05T09:13:22.555Z,50.70
2017-08-05T09:15:49.036Z,55.10
2017-08-05T09:18:15.460Z,54.70
2017-08-05T09:20:41.836Z,53.80
2017-08-05T09:23:08.227Z,56.60
2017-08-05T09:25:34.650Z,54.90
2017-08-05T09:28:01.790Z,58.30
2017-08-05T09:30:28.205Z,57.60
2017-08-05T09:32:54.619Z,64.00
2017-08-05T09:35:21.012Z,64.80
2017-08-05T09:37:47.444Z,66.90
2017-08-05T09:40:14.595Z,63.30
2017-08-05T09:42:41.044Z,63.30
2017-08-05T09:45:07.495Z,64.70
2017-08-05T09:47:33.933Z,64.70
2017-08-05T09:50:00.387Z,65.00
2017-08-05T09:52:26.783Z,63.20
2017-08-05T09:54:53.187Z,63.90
2017-08-05T09:57:19.561Z,66.20
2017-08-05T09:59:45.951Z,68.10
2017-08-05T10:02:12.383Z,67.70
2017-08-05T10:04:38.788Z,71.60
2017-08-05T10:07:05.191Z,70.70
2017-08-05T10:09:31.644Z,73.10
2017-08-05T10:11:58.070Z,72.20
2017-08-05T10:14:24.663Z,72.90
2017-08-05T10:16:51.140Z,74.60
2017-08-05T10:19:17.535Z,72.70
2017-08-05T10:21:43.927Z,70.30
2017-08-05T10:24:10.351Z,74.00
2017-08-05T10:26:36.745Z,72.00
2017-08-05T10:29:03.164Z,69.70
2017-08-05T10:31:29.547Z,69.50
2017-08-05T10:33:56.694Z,71.70
2017-08-05T10:36:23.420Z,71.90
2017-08-05T10:38:49.820Z,71.10
2017-08-05T10:41:16.279Z,72.80
2017-08-05T10:43:42.718Z,71.30
2017-08-05T10:46:10.111Z,71.20
2017-08-05T10:48:36.487Z,72.10
2017-08-05T10:51:02.893Z,70.90
2017-08-05T10:53:29.308Z,70.80
2017-08-05T10:55:55.792Z,71.70
2017-08-05T10:58:22.287Z,69.20
2017-08-05T11:00:48.836Z,68.00
2017-08-05T11:03:15.307Z,70.40
2017-08-05T11:05:41.819Z,70.70
2017-08-05T11:08:09.911Z,72.50
2017-08-05T11:10:36.348Z,72.50
2017-08-05T11:13:02.759Z,74.20
2017-08-05T11:15:29.176Z,73.80
2017-08-05T11:17:55.577Z,75.50
2017-08-05T11:20:21.956Z,76.60
2017-08-05T11:22:48.399Z,75.40
2017-08-05T11:25:15.571Z,73.30
2017-08-05T11:27:41.945Z,73.20
2017-08-05T11:30:09.145Z,74.20
2017-08-05T11:32:35.600Z,74.30
2017-08-05T11:35:02.011Z,74.50
2017-08-05T11:37:29.457Z,72.70
2017-08-05T11:39:56.583Z,77.20
2017-08-05T11:42:23.000Z,77.10
2017-08-05T11:44:49.412Z,74.50
2017-08-05T11:47:16.663Z,73.30
2017-08-05T11:49:43.079Z,73.20
2017-08-05T11:52:10.269Z,72.10
2017-08-05T11:54:36.663Z,72.10
2017-08-05T11:57:03.029Z,70.90
2017-08-05T11:59:29.389Z,72.50
2017-08-05T12:01:55.831Z,69.40
2017-08-05T12:04:22.339Z,70.60
2017-08-05T12:06:48.847Z,67.50
2017-08-05T12:09:15.264Z,65.40
2017-08-05T12:11:41.673Z,66.50
2017-08-05T12:14:08.107Z,68.10
2017-08-05T12:16:35.567Z,69.80
2017-08-05T12:19:01.978Z,66.40
2017-08-05T12:21:28.365Z,67.70
2017-08-05T12:23:54.811Z,66.90
2017-08-05T12:26:21.260Z,66.40
2017-08-05T12:28:47.691Z,68.70
2017-08-05T12:31:14.857Z,69.30
2017-08-05T12:33:41.227Z,69.30
2017-08-05T12:36:08.640Z,70.70
2017-08-05T12:38:35.059Z,79.80
2017-08-05T12:41:02.252Z,83.20
2017-08-05T12:43:28.635Z,83.80
2017-08-05T12:45:55.030Z,90.30
2017-08-05T12:48:21.443Z,90.80
2017-08-05T12:50:48.666Z,90.90
2017-08-05T12:53:15.088Z,90.90
2017-08-05T12:55:41.502Z,91.90
2017-08-05T12:58:07.903Z,90.80
2017-08-05T13:00:34.286Z,92.00
2017-08-05T13:03:00.756Z,90.30
2017-08-05T13:05:27.232Z,90.90
2017-08-05T13:07:53.648Z,88.10
2017-08-05T13:10:20.080Z,91.40
2017-08-05T13:12:46.460Z,91.90
2017-08-05T13:15:13.662Z,93.20
2017-08-05T13:17:40.167Z,92.80
2017-08-05T13:20:06.600Z,90.70
2017-08-05T13:22:33.009Z,75.20
2017-08-05T13:24:59.419Z,83.10
2017-08-05T13:27:25.871Z,82.50
2017-08-05T13:29:52.303Z,73.50
2017-08-05T13:32:18.687Z,72.40
2017-08-05T13:34:45.102Z,79.80
2017-08-05T13:37:11.560Z,66.00
2017-08-05T13:39:37.955Z,63.40
2017-08-05T13:42:04.361Z,65.90
2017-08-05T13:44:30.744Z,63.70
2017-08-05T13:46:57.144Z,63.80
2017-08-05T13:49:23.519Z,61.70
2017-08-05T13:51:49.915Z,65.60
2017-08-05T13:54:16.364Z,62.50
2017-08-05T13:56:43.519Z,57.30
2017-08-05T13:59:09.933Z,57.30
2017-08-05T14:01:36.343Z,53.90
2017-08-05T14:04:03.478Z,50.00
2017-08-05T14:06:29.932Z,50.00
2017-08-05T14:08:56.387Z,50.70
2017-08-05T14:11:23.889Z,50.10
2017-08-05T14:13:50.274Z,49.10
2017-08-05T14:16:16.690Z,49.50
2017-08-05T14:18:43.843Z,51.00
2017-08-05T14:21:10.239Z,50.90
2017-08-05T14:23:36.675Z,52.60
2017-08-05T14:26:03.107Z,52.30
2017-08-05T14:28:29.435Z,52.30
2017-08-05T14:30:55.907Z,53.30
2017-08-05T14:33:22.320Z,51.30
2017-08-05T14:35:49.500Z,53.30
2017-08-05T14:38:15.903Z,53.20
2017-08-05T14:40:42.341Z,52.80
2017-08-05T14:43:08.757Z,53.90
2017-08-05T14:45:35.143Z,52.30
2017-08-05T14:48:02.528Z,51.50
2017-08-05T14:50:28.911Z,51.30
2017-08-05T14:52:56.380Z,51.20
2017-08-05T14:55:22.774Z,53.40
2017-08-05T14:57:49.219Z,50.20
2017-08-05T15:00:15.637Z,50.50
2017-08-05T15:02:42.087Z,51.30
2017-08-05T15:05:08.540Z,47.50
2017-08-05T15:07:35.013Z,48.40
2017-08-05T15:10:01.496Z,49.90
2017-08-05T15:12:27.895Z,47.90
2017-08-05T15:14:54.329Z,48.10
2017-08-05T15:17:20.743Z,49.20
2017-08-05T15:19:47.182Z,48.90
2017-08-05T15:22:13.616Z,51.00
2017-08-05T15:24:40.760Z,51.70
2017-08-05T15:27:07.175Z,51.80
2017-08-05T15:29:33.599Z,53.20
2017-08-05T15:32:00.743Z,52.10
2017-08-05T15:34:27.255Z,52.10
2017-08-05T15:36:54.531Z,51.40
2017-08-05T15:39:20.930Z,50.70
2017-08-05T15:41:47.350Z,51.20
2017-08-05T15:44:13.803Z,51.10
2017-08-05T15:46:40.182Z,48.50
2017-08-05T15:49:06.607Z,49.50
2017-08-05T15:51:33.047Z,48.80
2017-08-05T15:53:59.460Z,48.60
2017-08-05T15:56:25.867Z,49.30
2017-08-05T15:58:52.311Z,50.30
2017-08-05T16:01:18.735Z,49.80
2017-08-05T16:03:45.937Z,50.60
2017-08-05T16:06:12.363Z,50.50
2017-08-05T16:08:38.755Z,51.00
2017-08-05T16:11:05.278Z,51.30
2017-08-05T16:13:32.752Z,50.70
2017-08-05T16:15:59.136Z,49.80
2017-08-05T16:18:25.568Z,50.60
2017-08-05T16:20:51.943Z,49.50
2017-08-05T16:23:19.076Z,51.50
2017-08-05T16:25:45.542Z,51.60
2017-08-05T16:28:11.963Z,51.10
2017-08-05T16:30:38.492Z,51.40
2017-08-05T16:33:05.807Z,49.00
2017-08-05T16:35:32.195Z,49.20
2017-08-05T16:37:58.559Z,48.80
2017-08-05T16:40:24.988Z,50.00
2017-08-05T16:42:51.386Z,52.30
2017-08-05T16:45:17.750Z,50.20
2017-08-05T16:47:44.162Z,51.00
2017-08-05T16:50:11.333Z,51.20
2017-08-05T16:52:37.740Z,51.20
2017-08-05T16:55:04.208Z,51.00
2017-08-05T16:57:31.365Z,51.20
2017-08-05T16:59:58.471Z,51.00
2017-08-05T17:02:24.923Z,51.00
2017-08-05T17:04:52.019Z,51.20
2017-08-05T17:07:18.407Z,51.10
2017-08-05T17:09:44.823Z,51.90
2017-08-05T17:12:11.235Z,53.90
2017-08-05T17:14:37.678Z,54.90
2017-08-05T17:17:04.054Z,55.40
2017-08-05T17:19:30.403Z,56.00
2017-08-05T17:21:56.815Z,57.20
2017-08-05T17:24:23.255Z,57.60
2017-08-05T17:26:49.662Z,57.60
2017-08-05T17:29:16.122Z,57.30
2017-08-05T17:31:43.255Z,57.20
2017-08-05T17:34:09.647Z,57.20
2017-08-05T17:36:36.802Z,55.90
2017-08-05T17:39:03.988Z,56.30
2017-08-05T17:41:30.373Z,56.20
2017-08-05T17:43:56.827Z,57.20
2017-08-05T17:46:23.507Z,56.00
2017-08-05T17:48:49.947Z,57.40
2017-08-05T17:51:17.338Z,58.90
2017-08-05T17:53:43.770Z,57.80
2017-08-05T17:56:10.175Z,58.50
2017-08-05T17:58:36.620Z,57.80
2017-08-05T18:01:02.995Z,57.80
2017-08-05T18:03:29.395Z,56.70
2017-08-05T18:05:55.782Z,56.80
2017-08-05T18:08:22.148Z,56.10
2017-08-05T18:10:48.535Z,58.30
2017-08-05T18:13:14.976Z,57.90
2017-08-05T18:15:41.367Z,56.70
2017-08-05T18:18:07.783Z,56.80
2017-08-05T18:20:34.176Z,56.40
2017-08-05T18:23:00.551Z,58.50
2017-08-05T18:25:27.695Z,57.80
2017-08-05T18:27:54.184Z,57.80
2017-08-05T18:30:20.579Z,57.30
2017-08-05T18:32:47.000Z,56.70
2017-08-05T18:35:13.400Z,59.20
2017-08-05T18:37:39.819Z,59.90
2017-08-05T18:40:06.219Z,60.00
2017-08-05T18:42:32.711Z,63.00
2017-08-05T18:44:59.923Z,62.00
2017-08-05T18:47:26.310Z,62.00
2017-08-05T18:49:52.704Z,61.50
2017-08-05T18:52:20.111Z,61.40
2017-08-05T18:54:46.591Z,62.50
2017-08-05T18:57:13.052Z,62.40
2017-08-05T18:59:39.471Z,60.60
2017-08-05T19:02:06.631Z,60.90
2017-08-05T19:04:33.059Z,60.90
2017-08-05T19:06:59.522Z,60.60
2017-08-05T19:09:25.941Z,61.10
2017-08-05T19:11:53.089Z,62.60
2017-08-05T19:14:20.217Z,62.70
2017-08-05T19:16:46.627Z,62.60
2017-08-05T19:19:13.055Z,63.00
2017-08-05T19:21:39.513Z,63.90
2017-08-05T19:24:05.904Z,63.90
2017-08-05T19:26:32.345Z,64.00
2017-08-05T19:28:58.831Z,64.50
2017-08-05T19:31:25.475Z,64.40
2017-08-05T19:33:52.115Z,65.00
2017-08-05T19:36:18.527Z,65.40
2017-08-05T19:38:44.906Z,66.00
2017-08-05T19:41:12.179Z,66.90
2017-08-05T19:43:39.359Z,66.80
2017-08-05T19:46:05.812Z,66.80
2017-08-05T19:48:32.357Z,67.60
2017-08-05T19:50:59.710Z,67.50
2017-08-05T19:53:26.141Z,67.40
2017-08-05T19:55:53.372Z,67.00
2017-08-05T19:58:20.060Z,66.90
2017-08-05T20:00:46.802Z,66.80
2017-08-05T20:03:13.524Z,67.00
2017-08-05T20:05:40.134Z,67.20
2017-08-05T20:08:07.073Z,64.70
2017-08-05T20:10:33.720Z,65.00
2017-08-05T20:13:00.371Z,63.70
2017-08-05T20:15:27.705Z,64.90
2017-08-05T20:17:54.207Z,64.90
2017-08-05T20:20:20.710Z,65.70
2017-08-05T20:22:47.414Z,62.10
2017-08-05T20:25:14.459Z,61.60
2017-08-05T20:27:41.704Z,62.60
2017-08-05T20:30:08.881Z,62.40
2017-08-05T20:32:35.341Z,62.40
2017-08-05T20:35:02.451Z,63.00
2017-08-05T20:37:28.990Z,62.90
2017-08-05T20:39:55.560Z,60.80
2017-08-05T20:42:21.967Z,62.30
2017-08-05T20:44:48.433Z,63.40
2017-08-05T20:47:14.862Z,62.40
2017-08-05T20:49:41.283Z,63.00
2017-08-05T20:52:08.434Z,61.90
2017-08-05T20:54:34.899Z,61.90
2017-08-05T20:57:02.087Z,63.30
2017-08-05T20:59:28.555Z,63.20
2017-08-05T21:01:55.868Z,63.50
2017-08-05T21:04:22.336Z,63.50
2017-08-05T21:06:49.549Z,63.60
2017-08-05T21:09:16.118Z,63.60
2017-08-05T21:11:42.563Z,63.90
2017-08-05T21:14:09.085Z,64.60
2017-08-05T21:16:35.517Z,63.40
2017-08-05T21:19:01.898Z,64.80
2017-08-05T21:21:28.738Z,66.00
2017-08-05T21:23:55.142Z,65.60
2017-08-05T21:26:21.516Z,66.90
2017-08-05T21:28:47.975Z,66.60
2017-08-05T21:31:14.379Z,66.70
2017-08-05T21:33:40.813Z,69.00
2017-08-05T21:36:07.228Z,69.30
2017-08-05T21:38:33.694Z,68.30
2017-08-05T21:41:00.075Z,69.80
2017-08-05T21:43:26.517Z,71.20
2017-08-05T21:45:53.691Z,71.10
2017-08-05T21:48:20.828Z,70.90
2017-08-05T21:50:47.238Z,70.80
2017-08-05T21:53:13.652Z,72.70
2017-08-05T21:55:40.799Z,73.70
2017-08-05T21:58:07.931Z,74.00
2017-08-05T22:00:34.347Z,74.00
2017-08-05T22:03:01.460Z,75.00
2017-08-05T22:05:27.852Z,75.70
2017-08-05T22:07:54.243Z,75.40
2017-08-05T22:10:20.726Z,75.50
2017-08-05T22:12:47.215Z,76.50
2017-08-05T22:15:14.352Z,77.30
2017-08-05T22:17:40.795Z,77.40
2017-08-05T22:20:07.263Z,77.20
2017-08-05T22:22:33.696Z,79.10
2017-08-05T22:25:00.080Z,79.40
2017-08-05T22:27:26.580Z,79.40
2017-08-05T22:29:52.977Z,79.90
2017-08-05T22:32:19.336Z,79.70
2017-08-05T22:34:45.760Z,80.20
2017-08-05T22:37:12.166Z,80.90
2017-08-05T22:39:38.544Z,81.50
2017-08-05T22:42:04.967Z,82.10
2017-08-05T22:44:31.381Z,82.20
2017-08-05T22:46:58.787Z,83.20
2017-08-05T22:49:25.215Z,83.00
2017-08-05T22:51:51.675Z,83.90
2017-08-05T22:54:18.078Z,83.30
2017-08-05T22:56:45.227Z,85.00
2017-08-05T22:59:11.659Z,84.80
2017-08-05T23:01:38.063Z,84.70
2017-08-05T23:04:04.527Z,84.00
2017-08-05T23:06:30.879Z,84.80
2017-08-05T23:08:57.267Z,85.30
2017-08-05T23:11:23.659Z,85.20
2017-08-05T23:13:50.059Z,86.20
2017-08-05T23:16:16.425Z,86.00
2017-08-05T23:18:43.639Z,86.60
2017-08-05T23:21:12.815Z,87.10
2017-08-05T23:23:39.200Z,86.90
2017-08-05T23:26:05.635Z,87.70
2017-08-05T23:28:32.088Z,88.70
2017-08-05T23:30:58.515Z,88.50
2017-08-05T23:33:24.911Z,88.20
2017-08-05T23:35:51.335Z,88.90
2017-08-05T23:38:17.733Z,89.10
2017-08-05T23:40:44.147Z,89.60
2017-08-05T23:43:10.592Z,90.10
2017-08-05T23:45:37.732Z,90.60
2017-08-05T23:48:04.879Z,91.00
2017-08-05T23:50:31.288Z,90.60
2017-08-05T23:52:57.742Z,90.60
2017-08-05T23:55:24.179Z,90.90
2017-08-05T23:57:50.631Z,90.70
